Accueil
METAR-TAF:

METAR-TAF

Aéroports :

Plate-forme pétrolière

P11-b, Pays-Bas

latitude: 52-21-36N, longitude: 3-20-30E, altitude: 24 m

Observation

Le bulletin a été fait il y a 37 minutes, à 15:25 UTC
Vent 8 kt de sud/sud-ouest, variant entre sud et sud-ouest
Température 6°C
Humidité 75%
Pression 1019 hPa
Visibilité 10 km ou plus
Quelques nuages à une hauteur de 1700 ft
Nuages fragmentés à une hauteur de 2200 ft
Nuages fragmentés à une hauteur de 2500 ft

METAR: EHPG 211525Z AUTO 21008KT 170V230 9999 FEW017 BKN022 BKN025 06/02 Q1019 W///H///

Heure: 17:02 (16:02 UTC)


TAF: absent

Observations et prévisions météorologiques de plus de 4000 aéroports (messages METAR et TAF).

Les stations disponibles sont représentées par des disques jaunes et rouges sur la carte.

Passer la souris dessus pour voir le nom de la station.

Cliquer dessus pour voir les observations et prévisions météorologiques.

Pour changer de carte: cliquez sur les boutons verts avec une croix noire pour zoomer, sur le bouton vert avec un tiret pour effectuer un zoom arrière, ou sur les flèches vertes pour les cartes adjacentes.


METAR-TAF: